sensor_id;sensor_type;location;lat;lon;timestamp;temperature;humidity
30069;DHT22;16894;49.456;10.644;2023-04-03T00:02:24;3.80;99.90
30069;DHT22;16894;49.456;10.644;2023-04-03T00:04:50;3.80;99.90
30069;DHT22;16894;49.456;10.644;2023-04-03T00:07:15;3.80;99.90
30069;DHT22;16894;49.456;10.644;2023-04-03T00:09:41;3.80;99.90
30069;DHT22;16894;49.456;10.644;2023-04-03T00:12:06;3.80;99.90
30069;DHT22;16894;49.456;10.644;2023-04-03T00:14:32;3.70;99.90
30069;DHT22;16894;49.456;10.644;2023-04-03T00:16:58;3.70;99.90
30069;DHT22;16894;49.456;10.644;2023-04-03T00:19:23;3.70;99.90
30069;DHT22;16894;49.456;10.644;2023-04-03T00:21:49;3.70;99.90
30069;DHT22;16894;49.456;10.644;2023-04-03T00:24:16;3.70;99.90
30069;DHT22;16894;49.456;10.644;2023-04-03T00:26:41;3.70;99.90
30069;DHT22;16894;49.456;10.644;2023-04-03T00:29:07;3.60;99.90
30069;DHT22;16894;49.456;10.644;2023-04-03T00:31:32;3.60;99.90
30069;DHT22;16894;49.456;10.644;2023-04-03T00:33:58;3.60;99.90
30069;DHT22;16894;49.456;10.644;2023-04-03T00:36:24;3.50;99.90
30069;DHT22;16894;49.456;10.644;2023-04-03T00:38:50;3.40;99.90
30069;DHT22;16894;49.456;10.644;2023-04-03T00:41:15;3.40;99.90
30069;DHT22;16894;49.456;10.644;2023-04-03T00:43:41;3.40;99.90
30069;DHT22;16894;49.456;10.644;2023-04-03T00:46:07;3.30;99.90
30069;DHT22;16894;49.456;10.644;2023-04-03T00:48:36;3.20;99.90
30069;DHT22;16894;49.456;10.644;2023-04-03T00:51:06;3.30;99.90
30069;DHT22;16894;49.456;10.644;2023-04-03T00:53:39;3.30;99.90
30069;DHT22;16894;49.456;10.644;2023-04-03T00:56:09;3.40;99.90
30069;DHT22;16894;49.456;10.644;2023-04-03T00:58:46;3.40;99.90
30069;DHT22;16894;49.456;10.644;2023-04-03T01:01:16;3.40;99.90
30069;DHT22;16894;49.456;10.644;2023-04-03T01:03:43;3.40;99.90
30069;DHT22;16894;49.456;10.644;2023-04-03T01:06:09;3.30;99.90
30069;DHT22;16894;49.456;10.644;2023-04-03T01:08:36;3.20;99.90
30069;DHT22;16894;49.456;10.644;2023-04-03T01:11:01;3.10;99.90
30069;DHT22;16894;49.456;10.644;2023-04-03T01:13:31;3.00;99.90
30069;DHT22;16894;49.456;10.644;2023-04-03T01:16:00;3.00;99.90
30069;DHT22;16894;49.456;10.644;2023-04-03T01:18:26;2.90;99.90
30069;DHT22;16894;49.456;10.644;2023-04-03T01:21:02;2.90;99.90
30069;DHT22;16894;49.456;10.644;2023-04-03T01:25:59;2.90;99.90
30069;DHT22;16894;49.456;10.644;2023-04-03T01:28:28;2.80;99.90
30069;DHT22;16894;49.456;10.644;2023-04-03T01:33:39;2.80;99.90
30069;DHT22;16894;49.456;10.644;2023-04-03T01:36:05;2.80;99.90
30069;DHT22;16894;49.456;10.644;2023-04-03T01:38:31;2.80;99.90
30069;DHT22;16894;49.456;10.644;2023-04-03T01:40:57;2.80;99.90
30069;DHT22;16894;49.456;10.644;2023-04-03T01:43:23;2.80;99.90
30069;DHT22;16894;49.456;10.644;2023-04-03T01:45:48;2.80;99.90
30069;DHT22;16894;49.456;10.644;2023-04-03T01:48:16;2.80;99.90
30069;DHT22;16894;49.456;10.644;2023-04-03T01:50:41;2.90;99.90
30069;DHT22;16894;49.456;10.644;2023-04-03T01:53:07;2.90;99.90
30069;DHT22;16894;49.456;10.644;2023-04-03T01:55:33;2.90;99.90
30069;DHT22;16894;49.456;10.644;2023-04-03T01:57:58;2.90;99.90
30069;DHT22;16894;49.456;10.644;2023-04-03T02:00:24;3.00;99.90
30069;DHT22;16894;49.456;10.644;2023-04-03T02:02:51;3.00;99.90
30069;DHT22;16894;49.456;10.644;2023-04-03T02:05:17;3.00;99.90
30069;DHT22;16894;49.456;10.644;2023-04-03T02:07:42;3.00;99.90
30069;DHT22;16894;49.456;10.644;2023-04-03T02:10:08;3.00;99.90
30069;DHT22;16894;49.456;10.644;2023-04-03T02:12:34;3.00;99.90
30069;DHT22;16894;49.456;10.644;2023-04-03T02:15:00;2.90;99.90
30069;DHT22;16894;49.456;10.644;2023-04-03T02:17:26;2.90;99.90
30069;DHT22;16894;49.456;10.644;2023-04-03T02:19:52;2.80;99.90
30069;DHT22;16894;49.456;10.644;2023-04-03T02:22:17;2.80;99.90
30069;DHT22;16894;49.456;10.644;2023-04-03T02:24:43;2.70;99.90
30069;DHT22;16894;49.456;10.644;2023-04-03T02:27:10;2.70;99.90
30069;DHT22;16894;49.456;10.644;2023-04-03T02:29:35;2.70;99.90
30069;DHT22;16894;49.456;10.644;2023-04-03T02:32:01;2.70;99.90
30069;DHT22;16894;49.456;10.644;2023-04-03T02:34:27;2.70;99.90
30069;DHT22;16894;49.456;10.644;2023-04-03T02:36:52;2.70;99.90
30069;DHT22;16894;49.456;10.644;2023-04-03T02:39:18;2.60;99.90
30069;DHT22;16894;49.456;10.644;2023-04-03T02:41:44;2.70;99.90
30069;DHT22;16894;49.456;10.644;2023-04-03T02:44:11;2.60;99.90
30069;DHT22;16894;49.456;10.644;2023-04-03T02:46:36;2.50;99.90
30069;DHT22;16894;49.456;10.644;2023-04-03T02:49:03;2.50;99.90
30069;DHT22;16894;49.456;10.644;2023-04-03T02:51:29;2.50;99.90
30069;DHT22;16894;49.456;10.644;2023-04-03T02:53:54;2.40;99.90
30069;DHT22;16894;49.456;10.644;2023-04-03T02:56:20;2.40;99.90
30069;DHT22;16894;49.456;10.644;2023-04-03T02:58:47;2.50;99.90
30069;DHT22;16894;49.456;10.644;2023-04-03T03:01:13;2.50;99.90
30069;DHT22;16894;49.456;10.644;2023-04-03T03:03:39;2.50;99.90
30069;DHT22;16894;49.456;10.644;2023-04-03T03:06:07;2.40;99.90
30069;DHT22;16894;49.456;10.644;2023-04-03T03:08:34;2.30;99.90
30069;DHT22;16894;49.456;10.644;2023-04-03T03:11:01;2.20;99.90
30069;DHT22;16894;49.456;10.644;2023-04-03T03:13:27;2.10;99.90
30069;DHT22;16894;49.456;10.644;2023-04-03T03:15:52;2.20;99.90
30069;DHT22;16894;49.456;10.644;2023-04-03T03:18:18;2.30;99.90
30069;DHT22;16894;49.456;10.644;2023-04-03T03:20:44;2.30;99.90
30069;DHT22;16894;49.456;10.644;2023-04-03T03:23:10;2.30;99.90
30069;DHT22;16894;49.456;10.644;2023-04-03T03:25:40;2.20;99.90
30069;DHT22;16894;49.456;10.644;2023-04-03T03:28:06;2.30;99.90
30069;DHT22;16894;49.456;10.644;2023-04-03T03:30:32;2.30;99.90
30069;DHT22;16894;49.456;10.644;2023-04-03T03:32:57;2.40;99.90
30069;DHT22;16894;49.456;10.644;2023-04-03T03:35:23;2.30;99.90
30069;DHT22;16894;49.456;10.644;2023-04-03T03:37:49;2.20;99.90
30069;DHT22;16894;49.456;10.644;2023-04-03T03:40:14;2.20;99.90
30069;DHT22;16894;49.456;10.644;2023-04-03T03:42:40;2.20;99.90
30069;DHT22;16894;49.456;10.644;2023-04-03T03:45:07;2.10;99.90
30069;DHT22;16894;49.456;10.644;2023-04-03T03:47:33;2.20;99.90
30069;DHT22;16894;49.456;10.644;2023-04-03T03:49:58;2.20;99.90
30069;DHT22;16894;49.456;10.644;2023-04-03T03:52:24;2.20;99.90
30069;DHT22;16894;49.456;10.644;2023-04-03T03:54:50;2.20;99.90
30069;DHT22;16894;49.456;10.644;2023-04-03T03:57:15;2.10;99.90
30069;DHT22;16894;49.456;10.644;2023-04-03T03:59:41;2.20;99.90
30069;DHT22;16894;49.456;10.644;2023-04-03T04:02:08;2.10;99.90
30069;DHT22;16894;49.456;10.644;2023-04-03T04:04:34;2.00;99.90
30069;DHT22;16894;49.456;10.644;2023-04-03T04:06:59;1.90;99.90
30069;DHT22;16894;49.456;10.644;2023-04-03T04:09:26;1.90;99.90
30069;DHT22;16894;49.456;10.644;2023-04-03T04:11:52;1.70;99.90
30069;DHT22;16894;49.456;10.644;2023-04-03T04:14:18;1.60;99.90
30069;DHT22;16894;49.456;10.644;2023-04-03T04:16:46;1.60;99.90
30069;DHT22;16894;49.456;10.644;2023-04-03T04:19:12;1.60;99.90
30069;DHT22;16894;49.456;10.644;2023-04-03T04:21:38;1.60;99.90
30069;DHT22;16894;49.456;10.644;2023-04-03T04:24:05;1.60;99.90
30069;DHT22;16894;49.456;10.644;2023-04-03T04:26:31;1.70;99.90
30069;DHT22;16894;49.456;10.644;2023-04-03T04:28:57;1.70;99.90
30069;DHT22;16894;49.456;10.644;2023-04-03T04:31:23;1.70;99.90
30069;DHT22;16894;49.456;10.644;2023-04-03T04:33:48;1.80;99.90
30069;DHT22;16894;49.456;10.644;2023-04-03T04:36:14;1.80;99.90
30069;DHT22;16894;49.456;10.644;2023-04-03T04:38:40;1.90;99.90
30069;DHT22;16894;49.456;10.644;2023-04-03T04:41:06;2.00;99.90
30069;DHT22;16894;49.456;10.644;2023-04-03T04:43:32;2.10;99.90
30069;DHT22;16894;49.456;10.644;2023-04-03T04:46:07;2.20;99.90
30069;DHT22;16894;49.456;10.644;2023-04-03T04:48:34;2.30;99.90
30069;DHT22;16894;49.456;10.644;2023-04-03T04:51:00;2.30;99.90
30069;DHT22;16894;49.456;10.644;2023-04-03T04:53:25;2.30;99.90
30069;DHT22;16894;49.456;10.644;2023-04-03T04:55:52;2.20;99.90
30069;DHT22;16894;49.456;10.644;2023-04-03T04:58:17;2.20;99.90
30069;DHT22;16894;49.456;10.644;2023-04-03T05:00:43;2.20;99.90
30069;DHT22;16894;49.456;10.644;2023-04-03T05:03:10;2.20;99.90
30069;DHT22;16894;49.456;10.644;2023-04-03T05:05:35;2.10;99.90
30069;DHT22;16894;49.456;10.644;2023-04-03T05:08:02;2.10;99.90
30069;DHT22;16894;49.456;10.644;2023-04-03T05:10:28;2.10;99.90
30069;DHT22;16894;49.456;10.644;2023-04-03T05:12:54;2.10;99.90
30069;DHT22;16894;49.456;10.644;2023-04-03T05:15:19;2.20;99.90
30069;DHT22;16894;49.456;10.644;2023-04-03T05:17:45;2.20;99.90
30069;DHT22;16894;49.456;10.644;2023-04-03T05:20:12;2.20;99.90
30069;DHT22;16894;49.456;10.644;2023-04-03T05:22:37;2.20;99.90
30069;DHT22;16894;49.456;10.644;2023-04-03T05:25:04;2.20;99.90
30069;DHT22;16894;49.456;10.644;2023-04-03T05:27:30;2.20;99.90
30069;DHT22;16894;49.456;10.644;2023-04-03T05:29:55;2.20;99.90
30069;DHT22;16894;49.456;10.644;2023-04-03T05:32:23;2.30;99.90
30069;DHT22;16894;49.456;10.644;2023-04-03T05:34:49;2.30;99.90
30069;DHT22;16894;49.456;10.644;2023-04-03T05:37:14;2.40;99.90
30069;DHT22;16894;49.456;10.644;2023-04-03T05:39:40;2.40;99.90
30069;DHT22;16894;49.456;10.644;2023-04-03T05:42:07;2.40;99.90
30069;DHT22;16894;49.456;10.644;2023-04-03T05:44:33;2.40;99.90
30069;DHT22;16894;49.456;10.644;2023-04-03T05:46:59;2.50;99.90
30069;DHT22;16894;49.456;10.644;2023-04-03T05:49:25;2.50;99.90
30069;DHT22;16894;49.456;10.644;2023-04-03T05:51:51;2.50;99.90
30069;DHT22;16894;49.456;10.644;2023-04-03T05:54:23;2.50;99.90
30069;DHT22;16894;49.456;10.644;2023-04-03T05:56:50;2.60;99.90
30069;DHT22;16894;49.456;10.644;2023-04-03T05:59:16;2.60;99.90
30069;DHT22;16894;49.456;10.644;2023-04-03T06:01:42;2.70;99.90
30069;DHT22;16894;49.456;10.644;2023-04-03T06:04:08;2.70;99.90
30069;DHT22;16894;49.456;10.644;2023-04-03T06:06:48;2.70;99.90
30069;DHT22;16894;49.456;10.644;2023-04-03T06:09:15;2.80;99.90
30069;DHT22;16894;49.456;10.644;2023-04-03T06:11:42;2.80;99.90
30069;DHT22;16894;49.456;10.644;2023-04-03T06:14:08;2.80;99.90
30069;DHT22;16894;49.456;10.644;2023-04-03T06:16:34;2.80;99.90
30069;DHT22;16894;49.456;10.644;2023-04-03T06:19:00;2.80;99.90
30069;DHT22;16894;49.456;10.644;2023-04-03T06:21:26;2.90;99.90
30069;DHT22;16894;49.456;10.644;2023-04-03T06:23:52;2.90;99.90
30069;DHT22;16894;49.456;10.644;2023-04-03T06:26:18;2.90;99.90
30069;DHT22;16894;49.456;10.644;2023-04-03T06:28:44;2.80;99.90
30069;DHT22;16894;49.456;10.644;2023-04-03T06:31:09;2.90;99.90
30069;DHT22;16894;49.456;10.644;2023-04-03T06:33:35;2.90;99.90
30069;DHT22;16894;49.456;10.644;2023-04-03T06:36:04;2.90;99.90
30069;DHT22;16894;49.456;10.644;2023-04-03T06:38:30;3.00;99.90
30069;DHT22;16894;49.456;10.644;2023-04-03T06:40:56;3.00;99.90
30069;DHT22;16894;49.456;10.644;2023-04-03T06:43:22;3.00;99.90
30069;DHT22;16894;49.456;10.644;2023-04-03T06:45:48;3.10;99.90
30069;DHT22;16894;49.456;10.644;2023-04-03T06:48:14;3.10;99.90
30069;DHT22;16894;49.456;10.644;2023-04-03T06:50:39;3.10;99.90
30069;DHT22;16894;49.456;10.644;2023-04-03T06:53:06;3.20;99.90
30069;DHT22;16894;49.456;10.644;2023-04-03T06:55:32;3.20;99.90
30069;DHT22;16894;49.456;10.644;2023-04-03T06:57:58;3.40;99.90
30069;DHT22;16894;49.456;10.644;2023-04-03T07:00:24;3.60;99.90
30069;DHT22;16894;49.456;10.644;2023-04-03T07:02:50;3.60;99.90
30069;DHT22;16894;49.456;10.644;2023-04-03T07:05:16;3.60;99.90
30069;DHT22;16894;49.456;10.644;2023-04-03T07:07:42;3.60;99.90
30069;DHT22;16894;49.456;10.644;2023-04-03T07:10:08;3.50;99.90
30069;DHT22;16894;49.456;10.644;2023-04-03T07:12:34;3.70;99.90
30069;DHT22;16894;49.456;10.644;2023-04-03T07:15:00;3.70;99.90
30069;DHT22;16894;49.456;10.644;2023-04-03T07:17:26;3.80;99.90
30069;DHT22;16894;49.456;10.644;2023-04-03T07:19:52;3.80;99.90
30069;DHT22;16894;49.456;10.644;2023-04-03T07:22:18;3.80;99.90
30069;DHT22;16894;49.456;10.644;2023-04-03T07:24:44;3.70;99.90
30069;DHT22;16894;49.456;10.644;2023-04-03T07:27:10;3.80;99.90
30069;DHT22;16894;49.456;10.644;2023-04-03T07:29:38;3.90;99.90
30069;DHT22;16894;49.456;10.644;2023-04-03T07:32:05;4.10;99.90
30069;DHT22;16894;49.456;10.644;2023-04-03T07:34:31;4.00;99.90
30069;DHT22;16894;49.456;10.644;2023-04-03T07:36:57;4.10;99.90
30069;DHT22;16894;49.456;10.644;2023-04-03T07:39:23;4.20;99.90
30069;DHT22;16894;49.456;10.644;2023-04-03T07:41:49;4.30;99.90
30069;DHT22;16894;49.456;10.644;2023-04-03T07:44:15;4.30;99.90
30069;DHT22;16894;49.456;10.644;2023-04-03T07:46:40;4.40;99.90
30069;DHT22;16894;49.456;10.644;2023-04-03T07:49:06;4.50;99.90
30069;DHT22;16894;49.456;10.644;2023-04-03T07:51:32;4.60;99.90
30069;DHT22;16894;49.456;10.644;2023-04-03T07:53:57;4.70;99.90
30069;DHT22;16894;49.456;10.644;2023-04-03T07:56:24;4.80;99.90
30069;DHT22;16894;49.456;10.644;2023-04-03T07:58:50;4.60;99.90
30069;DHT22;16894;49.456;10.644;2023-04-03T08:01:16;4.60;99.90
30069;DHT22;16894;49.456;10.644;2023-04-03T08:03:42;4.80;99.90
30069;DHT22;16894;49.456;10.644;2023-04-03T08:06:09;4.90;99.90
30069;DHT22;16894;49.456;10.644;2023-04-03T08:08:35;4.70;99.90
30069;DHT22;16894;49.456;10.644;2023-04-03T08:11:01;4.70;99.90
30069;DHT22;16894;49.456;10.644;2023-04-03T08:13:28;4.90;99.90
30069;DHT22;16894;49.456;10.644;2023-04-03T08:15:55;5.10;99.90
30069;DHT22;16894;49.456;10.644;2023-04-03T08:18:23;5.00;99.90
30069;DHT22;16894;49.456;10.644;2023-04-03T08:20:50;4.90;99.90
30069;DHT22;16894;49.456;10.644;2023-04-03T08:23:17;4.90;99.90
30069;DHT22;16894;49.456;10.644;2023-04-03T08:25:43;5.00;99.90
30069;DHT22;16894;49.456;10.644;2023-04-03T08:28:12;4.90;99.90
30069;DHT22;16894;49.456;10.644;2023-04-03T08:30:41;5.10;99.90
30069;DHT22;16894;49.456;10.644;2023-04-03T08:33:08;5.20;99.90
30069;DHT22;16894;49.456;10.644;2023-04-03T08:35:38;5.30;99.90
30069;DHT22;16894;49.456;10.644;2023-04-03T08:38:03;5.40;99.90
30069;DHT22;16894;49.456;10.644;2023-04-03T08:40:29;5.40;99.90
30069;DHT22;16894;49.456;10.644;2023-04-03T08:45:52;5.30;99.90
30069;DHT22;16894;49.456;10.644;2023-04-03T08:48:23;5.30;99.90
30069;DHT22;16894;49.456;10.644;2023-04-03T08:50:53;5.20;99.90
30069;DHT22;16894;49.456;10.644;2023-04-03T08:53:22;5.10;99.90
30069;DHT22;16894;49.456;10.644;2023-04-03T08:55:49;5.00;99.90
30069;DHT22;16894;49.456;10.644;2023-04-03T08:58:26;5.10;99.90
30069;DHT22;16894;49.456;10.644;2023-04-03T09:01:05;5.40;99.90
30069;DHT22;16894;49.456;10.644;2023-04-03T09:03:34;6.00;99.90
30069;DHT22;16894;49.456;10.644;2023-04-03T09:08:31;6.40;99.90
30069;DHT22;16894;49.456;10.644;2023-04-03T09:11:16;6.70;99.90
30069;DHT22;16894;49.456;10.644;2023-04-03T09:21:53;5.90;98.20
30069;DHT22;16894;49.456;10.644;2023-04-03T09:24:20;5.80;98.60
30069;DHT22;16894;49.456;10.644;2023-04-03T09:27:09;5.90;99.90
30069;DHT22;16894;49.456;10.644;2023-04-03T09:29:42;6.10;98.10
30069;DHT22;16894;49.456;10.644;2023-04-03T09:32:29;6.20;98.10
30069;DHT22;16894;49.456;10.644;2023-04-03T09:34:59;6.50;96.70
30069;DHT22;16894;49.456;10.644;2023-04-03T09:37:40;6.40;97.10
30069;DHT22;16894;49.456;10.644;2023-04-03T09:40:31;6.40;97.00
30069;DHT22;16894;49.456;10.644;2023-04-03T09:43:20;6.30;95.90
30069;DHT22;16894;49.456;10.644;2023-04-03T09:45:48;6.90;96.30
30069;DHT22;16894;49.456;10.644;2023-04-03T09:50:53;7.00;94.10
30069;DHT22;16894;49.456;10.644;2023-04-03T09:53:39;7.60;93.00
30069;DHT22;16894;49.456;10.644;2023-04-03T09:58:50;7.20;90.50
30069;DHT22;16894;49.456;10.644;2023-04-03T10:09:33;8.20;91.00
30069;DHT22;16894;49.456;10.644;2023-04-03T10:14:28;8.20;89.60
30069;DHT22;16894;49.456;10.644;2023-04-03T10:22:30;7.20;90.60
30069;DHT22;16894;49.456;10.644;2023-04-03T10:27:55;6.50;90.60
30069;DHT22;16894;49.456;10.644;2023-04-03T10:31:14;6.20;90.30
30069;DHT22;16894;49.456;10.644;2023-04-03T10:36:34;6.30;91.50
30069;DHT22;16894;49.456;10.644;2023-04-03T10:44:41;6.40;89.90
30069;DHT22;16894;49.456;10.644;2023-04-03T10:47:23;6.50;90.40
30069;DHT22;16894;49.456;10.644;2023-04-03T10:52:46;7.20;88.20
30069;DHT22;16894;49.456;10.644;2023-04-03T10:57:40;7.70;86.90
30069;DHT22;16894;49.456;10.644;2023-04-03T11:00:14;8.20;86.00
30069;DHT22;16894;49.456;10.644;2023-04-03T11:02:58;8.10;84.60
30069;DHT22;16894;49.456;10.644;2023-04-03T11:07:56;8.50;85.30
30069;DHT22;16894;49.456;10.644;2023-04-03T11:10:41;8.40;82.20
30069;DHT22;16894;49.456;10.644;2023-04-03T11:13:21;8.80;84.20
30069;DHT22;16894;49.456;10.644;2023-04-03T11:15:49;9.10;80.50
30069;DHT22;16894;49.456;10.644;2023-04-03T11:21:05;8.90;82.20
30069;DHT22;16894;49.456;10.644;2023-04-03T11:23:35;8.50;81.30
30069;DHT22;16894;49.456;10.644;2023-04-03T11:26:13;8.10;82.00
30069;DHT22;16894;49.456;10.644;2023-04-03T11:28:40;7.60;82.30
30069;DHT22;16894;49.456;10.644;2023-04-03T11:31:46;7.70;82.10
30069;DHT22;16894;49.456;10.644;2023-04-03T11:34:29;8.10;85.40
30069;DHT22;16894;49.456;10.644;2023-04-03T11:37:00;9.40;82.00
30069;DHT22;16894;49.456;10.644;2023-04-03T11:39:32;8.90;78.40
30069;DHT22;16894;49.456;10.644;2023-04-03T11:44:49;7.90;83.50
30069;DHT22;16894;49.456;10.644;2023-04-03T11:47:45;8.90;80.50
30069;DHT22;16894;49.456;10.644;2023-04-03T11:50:30;10.50;75.20
30069;DHT22;16894;49.456;10.644;2023-04-03T11:52:58;10.30;77.40
30069;DHT22;16894;49.456;10.644;2023-04-03T12:14:03;9.00;73.90
30069;DHT22;16894;49.456;10.644;2023-04-03T12:19:34;9.00;74.10
30069;DHT22;16894;49.456;10.644;2023-04-03T12:24:28;9.10;76.70
30069;DHT22;16894;49.456;10.644;2023-04-03T12:29:27;9.70;74.90
30069;DHT22;16894;49.456;10.644;2023-04-03T12:31:56;9.40;74.10
30069;DHT22;16894;49.456;10.644;2023-04-03T12:40:08;9.70;70.70
30069;DHT22;16894;49.456;10.644;2023-04-03T12:42:58;9.40;74.50
30069;DHT22;16894;49.456;10.644;2023-04-03T12:45:41;9.10;72.10
30069;DHT22;16894;49.456;10.644;2023-04-03T12:48:17;9.20;73.10
30069;DHT22;16894;49.456;10.644;2023-04-03T12:50:45;9.40;71.80
30069;DHT22;16894;49.456;10.644;2023-04-03T12:53:18;10.30;71.90
30069;DHT22;16894;49.456;10.644;2023-04-03T12:55:45;10.90;73.00
30069;DHT22;16894;49.456;10.644;2023-04-03T13:03:34;13.10;62.70
30069;DHT22;16894;49.456;10.644;2023-04-03T13:06:02;12.80;64.30
30069;DHT22;16894;49.456;10.644;2023-04-03T13:08:29;11.50;67.20
30069;DHT22;16894;49.456;10.644;2023-04-03T13:11:10;10.30;67.50
30069;DHT22;16894;49.456;10.644;2023-04-03T13:13:37;9.20;71.20
30069;DHT22;16894;49.456;10.644;2023-04-03T13:16:10;8.40;72.60
30069;DHT22;16894;49.456;10.644;2023-04-03T13:18:37;8.40;74.80
30069;DHT22;16894;49.456;10.644;2023-04-03T13:23:52;10.80;67.30
30069;DHT22;16894;49.456;10.644;2023-04-03T13:26:22;10.70;67.20
30069;DHT22;16894;49.456;10.644;2023-04-03T13:28:48;12.30;67.80
30069;DHT22;16894;49.456;10.644;2023-04-03T13:31:33;14.10;66.00
30069;DHT22;16894;49.456;10.644;2023-04-03T13:34:11;15.70;60.10
30069;DHT22;16894;49.456;10.644;2023-04-03T13:36:41;14.80;59.30
30069;DHT22;16894;49.456;10.644;2023-04-03T13:41:50;13.60;59.60
30069;DHT22;16894;49.456;10.644;2023-04-03T13:46:52;9.90;65.30
30069;DHT22;16894;49.456;10.644;2023-04-03T13:51:55;12.10;64.70
30069;DHT22;16894;49.456;10.644;2023-04-03T13:54:31;13.30;60.80
30069;DHT22;16894;49.456;10.644;2023-04-03T13:56:59;15.10;60.30
30069;DHT22;16894;49.456;10.644;2023-04-03T13:59:35;14.10;58.30
30069;DHT22;16894;49.456;10.644;2023-04-03T14:04:31;11.60;61.90
30069;DHT22;16894;49.456;10.644;2023-04-03T14:06:58;13.10;63.70
30069;DHT22;16894;49.456;10.644;2023-04-03T14:09:25;13.70;61.40
30069;DHT22;16894;49.456;10.644;2023-04-03T14:12:00;13.30;57.80
30069;DHT22;16894;49.456;10.644;2023-04-03T14:14:34;12.50;60.90
30069;DHT22;16894;49.456;10.644;2023-04-03T14:17:02;13.30;59.50
30069;DHT22;16894;49.456;10.644;2023-04-03T14:19:35;13.70;59.40
30069;DHT22;16894;49.456;10.644;2023-04-03T14:22:11;15.00;59.90
30069;DHT22;16894;49.456;10.644;2023-04-03T14:24:38;15.40;55.20
30069;DHT22;16894;49.456;10.644;2023-04-03T14:29:43;16.10;55.00
30069;DHT22;16894;49.456;10.644;2023-04-03T14:32:14;14.80;55.10
30069;DHT22;16894;49.456;10.644;2023-04-03T14:34:42;15.00;55.00
30069;DHT22;16894;49.456;10.644;2023-04-03T14:37:14;14.60;55.50
30069;DHT22;16894;49.456;10.644;2023-04-03T14:39:41;15.00;56.90
30069;DHT22;16894;49.456;10.644;2023-04-03T14:42:13;14.90;56.10
30069;DHT22;16894;49.456;10.644;2023-04-03T14:44:39;15.70;54.60
30069;DHT22;16894;49.456;10.644;2023-04-03T14:47:05;15.00;55.70
30069;DHT22;16894;49.456;10.644;2023-04-03T14:49:31;15.00;54.20
30069;DHT22;16894;49.456;10.644;2023-04-03T14:51:57;15.30;53.30
30069;DHT22;16894;49.456;10.644;2023-04-03T14:54:23;15.20;54.40
30069;DHT22;16894;49.456;10.644;2023-04-03T14:56:54;15.00;53.60
30069;DHT22;16894;49.456;10.644;2023-04-03T14:59:21;14.00;54.00
30069;DHT22;16894;49.456;10.644;2023-04-03T15:01:47;14.20;55.90
30069;DHT22;16894;49.456;10.644;2023-04-03T15:04:19;13.50;55.00
30069;DHT22;16894;49.456;10.644;2023-04-03T15:06:46;13.40;56.70
30069;DHT22;16894;49.456;10.644;2023-04-03T15:11:45;13.30;56.30
30069;DHT22;16894;49.456;10.644;2023-04-03T15:14:11;13.90;54.90
30069;DHT22;16894;49.456;10.644;2023-04-03T15:16:36;11.40;56.70
30069;DHT22;16894;49.456;10.644;2023-04-03T15:19:02;10.40;59.00
30069;DHT22;16894;49.456;10.644;2023-04-03T15:21:28;9.30;62.20
30069;DHT22;16894;49.456;10.644;2023-04-03T15:23:54;9.40;64.50
30069;DHT22;16894;49.456;10.644;2023-04-03T15:26:19;9.60;63.20
30069;DHT22;16894;49.456;10.644;2023-04-03T15:28:46;9.20;62.50
30069;DHT22;16894;49.456;10.644;2023-04-03T15:31:12;9.00;64.80
30069;DHT22;16894;49.456;10.644;2023-04-03T15:33:38;9.00;64.60
30069;DHT22;16894;49.456;10.644;2023-04-03T15:36:05;8.50;65.30
30069;DHT22;16894;49.456;10.644;2023-04-03T15:38:30;8.20;66.00
30069;DHT22;16894;49.456;10.644;2023-04-03T15:40:56;8.00;66.80
30069;DHT22;16894;49.456;10.644;2023-04-03T15:43:22;8.00;67.30
30069;DHT22;16894;49.456;10.644;2023-04-03T15:45:48;8.20;66.40
30069;DHT22;16894;49.456;10.644;2023-04-03T15:48:14;8.20;65.60
30069;DHT22;16894;49.456;10.644;2023-04-03T15:50:41;7.90;65.40
30069;DHT22;16894;49.456;10.644;2023-04-03T15:53:07;7.60;64.90
30069;DHT22;16894;49.456;10.644;2023-04-03T15:55:35;7.20;66.50
30069;DHT22;16894;49.456;10.644;2023-04-03T15:58:01;6.90;66.50
30069;DHT22;16894;49.456;10.644;2023-04-03T16:00:28;6.80;68.00
30069;DHT22;16894;49.456;10.644;2023-04-03T16:02:57;6.80;66.50
30069;DHT22;16894;49.456;10.644;2023-04-03T16:05:25;6.70;67.80
30069;DHT22;16894;49.456;10.644;2023-04-03T16:07:51;6.70;67.60
30069;DHT22;16894;49.456;10.644;2023-04-03T16:10:18;6.60;67.90
30069;DHT22;16894;49.456;10.644;2023-04-03T16:12:44;6.50;68.80
30069;DHT22;16894;49.456;10.644;2023-04-03T16:15:10;6.50;68.00
30069;DHT22;16894;49.456;10.644;2023-04-03T16:17:37;6.40;69.30
30069;DHT22;16894;49.456;10.644;2023-04-03T16:20:04;6.50;69.70
30069;DHT22;16894;49.456;10.644;2023-04-03T16:22:33;6.60;69.80
30069;DHT22;16894;49.456;10.644;2023-04-03T16:24:59;6.50;68.30
30069;DHT22;16894;49.456;10.644;2023-04-03T16:27:31;6.60;70.10
30069;DHT22;16894;49.456;10.644;2023-04-03T16:30:02;6.60;67.60
30069;DHT22;16894;49.456;10.644;2023-04-03T16:32:33;6.40;68.10
30069;DHT22;16894;49.456;10.644;2023-04-03T16:34:59;6.40;70.30
30069;DHT22;16894;49.456;10.644;2023-04-03T16:37:25;6.40;68.40
30069;DHT22;16894;49.456;10.644;2023-04-03T16:39:51;6.30;69.90
30069;DHT22;16894;49.456;10.644;2023-04-03T16:42:20;6.10;69.00
30069;DHT22;16894;49.456;10.644;2023-04-03T16:44:52;6.10;70.40
30069;DHT22;16894;49.456;10.644;2023-04-03T16:47:17;6.00;69.30
30069;DHT22;16894;49.456;10.644;2023-04-03T16:49:46;5.90;70.50
30069;DHT22;16894;49.456;10.644;2023-04-03T16:52:13;5.60;70.90
30069;DHT22;16894;49.456;10.644;2023-04-03T16:54:39;5.50;70.80
30069;DHT22;16894;49.456;10.644;2023-04-03T16:57:04;5.50;71.80
30069;DHT22;16894;49.456;10.644;2023-04-03T16:59:30;5.40;72.20
30069;DHT22;16894;49.456;10.644;2023-04-03T17:01:56;5.30;71.30
30069;DHT22;16894;49.456;10.644;2023-04-03T17:04:21;5.20;72.20
30069;DHT22;16894;49.456;10.644;2023-04-03T17:06:47;5.10;71.80
30069;DHT22;16894;49.456;10.644;2023-04-03T17:09:13;5.10;74.00
30069;DHT22;16894;49.456;10.644;2023-04-03T17:11:39;5.10;73.40
30069;DHT22;16894;49.456;10.644;2023-04-03T17:14:04;5.00;72.70
30069;DHT22;16894;49.456;10.644;2023-04-03T17:16:37;5.00;73.90
30069;DHT22;16894;49.456;10.644;2023-04-03T17:19:04;4.90;73.60
30069;DHT22;16894;49.456;10.644;2023-04-03T17:21:31;4.90;74.20
30069;DHT22;16894;49.456;10.644;2023-04-03T17:24:00;4.80;73.10
30069;DHT22;16894;49.456;10.644;2023-04-03T17:26:26;4.80;75.60
30069;DHT22;16894;49.456;10.644;2023-04-03T17:28:52;4.90;78.80
30069;DHT22;16894;49.456;10.644;2023-04-03T17:31:18;5.00;75.40
30069;DHT22;16894;49.456;10.644;2023-04-03T17:33:43;4.90;75.60
30069;DHT22;16894;49.456;10.644;2023-04-03T17:36:09;4.90;75.00
30069;DHT22;16894;49.456;10.644;2023-04-03T17:38:35;4.70;75.40